Time;durP1;ratioP1;P1;durP2;ratioP2;P2;SDS_P1;SDS_P2;PMS_P1;PMS_P2;Temp;Humidity;BMP_temperature;BMP_pressure;BME280_temperature;BME280_humidity;BME280_pressure;Samples;Min_cycle;Max_cycle;Signal;HPM_P1;HPM_P2
2024/01/20 00:00:01;;;;;;;82.77;22.70;;;;;;;;;;5082396;28;20021;-94
2024/01/20 00:02:27;;;;;;;76.80;20.08;;;;;;;;;;5074437;28;20048;-94
2024/01/20 00:04:52;;;;;;;70.73;17.63;;;;;;;;;;5091516;28;20113;-93
2024/01/20 00:07:17;;;;;;;64.50;18.13;;;;;;;;;;5075161;28;20076;-93
2024/01/20 00:09:42;;;;;;;62.13;18.17;;;;;;;;;;5091839;28;20020;-92
2024/01/20 00:12:07;;;;;;;58.53;16.93;;;;;;;;;;5088447;28;20068;-94
2024/01/20 00:14:34;;;;;;;71.32;18.55;;;;;;;;;;5069277;28;20526;-93
2024/01/20 00:16:59;;;;;;;67.50;19.60;;;;;;;;;;5077588;28;19997;-93
2024/01/20 00:19:25;;;;;;;73.57;22.43;;;;;;;;;;5077270;28;20001;-93
2024/01/20 00:21:50;;;;;;;68.53;19.05;;;;;;;;;;5095416;28;20076;-94
2024/01/20 00:24:15;;;;;;;65.80;17.77;;;;;;;;;;5096235;28;20054;-94
2024/01/20 00:26:41;;;;;;;63.40;17.03;;;;;;;;;;5099108;28;20016;-93
2024/01/20 00:29:06;;;;;;;67.97;19.33;;;;;;;;;;5073847;28;20021;-94
2024/01/20 00:31:31;;;;;;;64.23;17.87;;;;;;;;;;5097159;28;20049;-94
2024/01/20 00:33:56;;;;;;;49.90;14.13;;;;;;;;;;5098231;28;20048;-94
2024/01/20 00:36:22;;;;;;;62.63;18.47;;;;;;;;;;5078849;28;20088;-93
2024/01/20 00:38:47;;;;;;;61.60;16.70;;;;;;;;;;5087961;28;20023;-93
2024/01/20 00:41:12;;;;;;;62.30;16.53;;;;;;;;;;5088219;28;20008;-94
2024/01/20 00:43:37;;;;;;;51.33;15.50;;;;;;;;;;5098211;28;20083;-94
2024/01/20 00:46:03;;;;;;;59.97;16.20;;;;;;;;;;5093719;28;20016;-93
2024/01/20 00:48:28;;;;;;;55.33;16.23;;;;;;;;;;5093525;28;20036;-93
2024/01/20 00:50:53;;;;;;;59.30;16.63;;;;;;;;;;5088202;28;20017;-92
2024/01/20 00:53:18;;;;;;;54.33;15.40;;;;;;;;;;5084207;28;20039;-94
2024/01/20 00:55:44;;;;;;;69.00;17.57;;;;;;;;;;5080163;28;20078;-94
2024/01/20 00:58:09;;;;;;;53.53;15.87;;;;;;;;;;5064502;28;20494;-94
2024/01/20 01:00:34;;;;;;;54.97;14.73;;;;;;;;;;5060486;28;20024;-94
2024/01/20 01:02:59;;;;;;;56.27;16.43;;;;;;;;;;5082344;28;20016;-95
2024/01/20 01:05:25;;;;;;;54.53;14.97;;;;;;;;;;5079821;28;20024;-94
2024/01/20 01:07:50;;;;;;;60.97;17.00;;;;;;;;;;5081782;28;20028;-93
2024/01/20 01:10:16;;;;;;;52.07;14.70;;;;;;;;;;5076681;28;20024;-94
2024/01/20 01:12:41;;;;;;;54.20;15.57;;;;;;;;;;5096712;28;20041;-93
2024/01/20 01:15:06;;;;;;;52.80;15.53;;;;;;;;;;5079736;28;20051;-94
2024/01/20 01:17:32;;;;;;;58.33;15.70;;;;;;;;;;5097014;28;20020;-93
2024/01/20 01:19:58;;;;;;;52.65;14.07;;;;;;;;;;5081374;28;20024;-94
2024/01/20 01:22:23;;;;;;;52.63;16.47;;;;;;;;;;5080121;28;20031;-95
2024/01/20 01:24:48;;;;;;;55.67;16.50;;;;;;;;;;5061528;28;20106;-94
2024/01/20 01:27:13;;;;;;;63.30;17.83;;;;;;;;;;5081416;28;20017;-93
2024/01/20 01:29:39;;;;;;;58.20;16.70;;;;;;;;;;5081966;28;20583;-94
2024/01/20 01:32:04;;;;;;;58.70;15.77;;;;;;;;;;5063945;28;20027;-94
2024/01/20 01:34:29;;;;;;;66.20;16.97;;;;;;;;;;5081823;28;20623;-94
2024/01/20 01:36:54;;;;;;;63.80;16.10;;;;;;;;;;5080841;28;20070;-94
2024/01/20 01:39:21;;;;;;;59.47;16.00;;;;;;;;;;5058938;28;20031;-95
2024/01/20 01:41:46;;;;;;;54.90;15.50;;;;;;;;;;5078144;28;20093;-95
2024/01/20 01:44:12;;;;;;;59.03;17.03;;;;;;;;;;5079917;28;20049;-94
2024/01/20 01:46:37;;;;;;;58.37;15.70;;;;;;;;;;5056252;28;20108;-95
2024/01/20 01:49:03;;;;;;;69.93;20.37;;;;;;;;;;5057690;28;20131;-94
2024/01/20 01:51:28;;;;;;;60.40;16.55;;;;;;;;;;5075501;28;20028;-94
2024/01/20 01:53:54;;;;;;;60.23;16.40;;;;;;;;;;5075177;28;20115;-94
2024/01/20 01:56:19;;;;;;;59.47;18.77;;;;;;;;;;5076891;28;20028;-94
2024/01/20 01:58:45;;;;;;;57.77;14.73;;;;;;;;;;5076538;28;20464;-94
2024/01/20 02:01:10;;;;;;;55.63;15.67;;;;;;;;;;5075359;28;20833;-95
2024/01/20 02:03:35;;;;;;;54.43;17.23;;;;;;;;;;5078536;28;20102;-95
2024/01/20 02:06:00;;;;;;;61.20;17.00;;;;;;;;;;5076240;28;20066;-94
2024/01/20 02:08:27;;;;;;;53.40;16.07;;;;;;;;;;5076764;28;20021;-95
2024/01/20 02:10:52;;;;;;;59.53;16.75;;;;;;;;;;5077236;28;20024;-92
2024/01/20 02:13:18;;;;;;;51.60;15.57;;;;;;;;;;5062173;28;20120;-93
2024/01/20 02:15:44;;;;;;;54.50;15.63;;;;;;;;;;5060391;28;20024;-93
2024/01/20 02:18:09;;;;;;;53.03;15.70;;;;;;;;;;5061126;28;20024;-93
2024/01/20 02:20:35;;;;;;;54.00;15.27;;;;;;;;;;5059473;28;20116;-94
2024/01/20 02:23:00;;;;;;;51.53;15.93;;;;;;;;;;5080176;28;20126;-94
2024/01/20 02:25:25;;;;;;;48.23;14.47;;;;;;;;;;5077594;28;20047;-94
2024/01/20 02:27:50;;;;;;;64.37;19.57;;;;;;;;;;5062126;28;20116;-94
2024/01/20 02:30:16;;;;;;;63.97;16.90;;;;;;;;;;5084610;28;20047;-93
2024/01/20 02:32:41;;;;;;;57.03;15.47;;;;;;;;;;5091372;28;20048;-94
2024/01/20 02:35:07;;;;;;;52.07;14.57;;;;;;;;;;5091836;28;20282;-94
2024/01/20 02:37:32;;;;;;;45.33;14.03;;;;;;;;;;5076143;28;20074;-94
2024/01/20 02:39:57;;;;;;;51.53;14.80;;;;;;;;;;5077030;28;20062;-93
2024/01/20 02:42:23;;;;;;;49.63;14.50;;;;;;;;;;5078060;28;20097;-94
2024/01/20 02:44:48;;;;;;;51.50;15.40;;;;;;;;;;5059170;28;20057;-93
2024/01/20 02:47:13;;;;;;;50.20;14.95;;;;;;;;;;5075117;28;20027;-94
2024/01/20 02:49:39;;;;;;;51.97;13.37;;;;;;;;;;5051313;28;20594;-93
2024/01/20 02:52:04;;;;;;;52.83;16.13;;;;;;;;;;5056947;28;20052;-94
2024/01/20 02:54:29;;;;;;;53.03;15.67;;;;;;;;;;5075137;28;20476;-94
2024/01/20 02:56:56;;;;;;;59.20;17.13;;;;;;;;;;5075972;28;20454;-94
2024/01/20 02:59:21;;;;;;;50.47;14.80;;;;;;;;;;5077477;28;20029;-94
2024/01/20 03:01:46;;;;;;;46.37;14.70;;;;;;;;;;5074927;28;20024;-94
2024/01/20 03:04:13;;;;;;;48.70;15.93;;;;;;;;;;5083191;28;20025;-94
2024/01/20 03:06:38;;;;;;;56.95;17.17;;;;;;;;;;5061313;28;20025;-93
2024/01/20 03:09:03;;;;;;;51.50;15.93;;;;;;;;;;5079674;28;20023;-94
2024/01/20 03:11:29;;;;;;;50.13;16.13;;;;;;;;;;5074720;28;20485;-94
2024/01/20 03:13:54;;;;;;;55.30;17.13;;;;;;;;;;5075921;28;20036;-95
2024/01/20 03:16:19;;;;;;;51.30;15.17;;;;;;;;;;5073951;28;20019;-93
2024/01/20 03:18:44;;;;;;;64.20;17.83;;;;;;;;;;5074906;28;20020;-94
2024/01/20 03:21:09;;;;;;;59.10;16.43;;;;;;;;;;5075325;28;20020;-94
2024/01/20 03:23:35;;;;;;;53.47;16.43;;;;;;;;;;5073715;28;20019;-94
2024/01/20 03:26:07;;;;;;;52.33;14.77;;;;;;;;;;5075460;28;20021;-95
2024/01/20 03:28:33;;;;;;;54.88;15.80;;;;;;;;;;5073918;28;20025;-96
2024/01/20 03:30:58;;;;;;;52.53;17.03;;;;;;;;;;5075189;28;20135;-95
2024/01/20 03:33:23;;;;;;;50.00;14.93;;;;;;;;;;5074792;28;20029;-95
2024/01/20 03:35:50;;;;;;;48.87;15.67;;;;;;;;;;5084592;28;20075;-94
2024/01/20 03:38:15;;;;;;;50.42;15.15;;;;;;;;;;5059609;28;20054;-95
2024/01/20 03:40:43;;;;;;;53.00;15.00;;;;;;;;;;5065180;28;20009;-94
2024/01/20 03:43:08;;;;;;;44.38;15.20;;;;;;;;;;5058425;28;20024;-93
2024/01/20 03:45:34;;;;;;;51.10;16.13;;;;;;;;;;5071527;28;20379;-95
2024/01/20 03:47:59;;;;;;;48.37;15.03;;;;;;;;;;5074065;28;20021;-95
2024/01/20 03:50:26;;;;;;;45.90;13.53;;;;;;;;;;5083303;28;20028;-93
2024/01/20 03:52:51;;;;;;;56.92;17.23;;;;;;;;;;5086494;28;20041;-94
2024/01/20 03:55:16;;;;;;;48.03;14.80;;;;;;;;;;5073952;28;20016;-95
2024/01/20 03:57:42;;;;;;;43.80;14.77;;;;;;;;;;5084746;28;20024;-95
2024/01/20 04:00:09;;;;;;;45.60;14.15;;;;;;;;;;5086178;28;20027;-95
2024/01/20 04:02:34;;;;;;;44.97;13.40;;;;;;;;;;5057774;28;20024;-94
2024/01/20 04:04:59;;;;;;;47.38;13.90;;;;;;;;;;5070119;28;20088;-94
2024/01/20 04:07:26;;;;;;;37.00;13.00;;;;;;;;;;5072878;28;20016;-96
2024/01/20 04:09:51;;;;;;;46.47;14.80;;;;;;;;;;5063964;28;20020;-96
2024/01/20 04:12:16;;;;;;;48.78;14.38;;;;;;;;;;5063190;28;20101;-95
2024/01/20 04:14:41;;;;;;;41.47;14.17;;;;;;;;;;5081285;28;20032;-96
2024/01/20 04:17:07;;;;;;;38.00;12.93;;;;;;;;;;5082304;28;20017;-96
2024/01/20 04:19:32;;;;;;;43.00;13.30;;;;;;;;;;5080370;28;20459;-96
2024/01/20 04:21:57;;;;;;;44.87;14.83;;;;;;;;;;5094969;28;20030;-96
2024/01/20 04:24:23;;;;;;;44.73;15.37;;;;;;;;;;5098931;28;20027;-96
2024/01/20 04:26:49;;;;;;;51.13;15.75;;;;;;;;;;5055279;28;20080;-96
2024/01/20 04:29:14;;;;;;;46.17;14.70;;;;;;;;;;5080787;28;20044;-96
2024/01/20 04:31:39;;;;;;;49.00;14.80;;;;;;;;;;5080983;28;20028;-96
2024/01/20 04:34:04;;;;;;;40.43;12.97;;;;;;;;;;5084464;28;20033;-95
2024/01/20 04:36:30;;;;;;;36.47;13.40;;;;;;;;;;5063737;28;20023;-94
2024/01/20 04:38:55;;;;;;;47.00;12.73;;;;;;;;;;5079675;28;20163;-94
2024/01/20 04:41:20;;;;;;;48.77;15.13;;;;;;;;;;5079274;28;20028;-96
2024/01/20 04:43:45;;;;;;;58.27;20.53;;;;;;;;;;5061352;28;20016;-96
2024/01/20 04:46:12;;;;;;;56.47;17.93;;;;;;;;;;5060347;28;20013;-93
2024/01/20 04:48:37;;;;;;;49.92;15.77;;;;;;;;;;5056845;28;20024;-96
2024/01/20 04:51:03;;;;;;;44.17;14.43;;;;;;;;;;5077116;28;20027;-96
2024/01/20 04:53:28;;;;;;;44.03;15.20;;;;;;;;;;5078515;28;20037;-94
2024/01/20 04:55:53;;;;;;;47.90;14.70;;;;;;;;;;5074260;28;20096;-93
2024/01/20 04:58:18;;;;;;;38.93;13.00;;;;;;;;;;5070383;28;20039;-94
2024/01/20 05:00:44;;;;;;;42.87;14.27;;;;;;;;;;5072757;28;20271;-95
2024/01/20 05:03:10;;;;;;;39.03;13.03;;;;;;;;;;5078731;28;20103;-94
2024/01/20 05:05:36;;;;;;;50.15;13.95;;;;;;;;;;5078294;28;20040;-95
2024/01/20 05:08:01;;;;;;;47.97;15.97;;;;;;;;;;5080292;28;20384;-95
2024/01/20 05:10:26;;;;;;;40.87;14.47;;;;;;;;;;5092641;28;20250;-95
2024/01/20 05:12:52;;;;;;;49.23;15.50;;;;;;;;;;5072501;28;20456;-93
2024/01/20 05:15:19;;;;;;;43.63;13.77;;;;;;;;;;5059382;28;20043;-95
2024/01/20 05:17:44;;;;;;;42.05;14.10;;;;;;;;;;5056504;28;20048;-95
2024/01/20 05:20:16;;;;;;;53.63;17.10;;;;;;;;;;5059903;28;20038;-93
2024/01/20 05:22:42;;;;;;;40.70;13.27;;;;;;;;;;5061549;28;20589;-92
2024/01/20 05:25:07;;;;;;;41.05;12.40;;;;;;;;;;5076311;28;20020;-94
2024/01/20 05:27:33;;;;;;;42.93;13.63;;;;;;;;;;5066259;28;20404;-95
2024/01/20 05:29:58;;;;;;;41.60;13.37;;;;;;;;;;5073938;28;20017;-95
2024/01/20 05:32:23;;;;;;;44.50;13.20;;;;;;;;;;5088889;28;20536;-94
2024/01/20 05:34:48;;;;;;;38.53;14.10;;;;;;;;;;5086877;28;20111;-94
2024/01/20 05:37:14;;;;;;;37.92;12.48;;;;;;;;;;5088167;28;20012;-96
2024/01/20 05:39:40;;;;;;;45.37;13.70;;;;;;;;;;5058459;28;20032;-95
2024/01/20 05:42:06;;;;;;;41.00;14.55;;;;;;;;;;5072316;28;20021;-95
2024/01/20 05:44:32;;;;;;;40.35;14.05;;;;;;;;;;5079589;28;20147;-94
2024/01/20 05:46:57;;;;;;;43.77;13.77;;;;;;;;;;5062023;28;20127;-94
2024/01/20 05:49:25;;;;;;;51.20;16.27;;;;;;;;;;5075256;28;20650;-95
2024/01/20 05:51:50;;;;;;;42.33;12.97;;;;;;;;;;5080027;28;20449;-95
2024/01/20 05:54:16;;;;;;;36.80;12.70;;;;;;;;;;5077689;28;20360;-95
2024/01/20 05:56:41;;;;;;;37.63;13.37;;;;;;;;;;5073843;28;20028;-88
2024/01/20 05:59:06;;;;;;;39.90;13.37;;;;;;;;;;5065963;28;20368;-88
2024/01/20 06:01:33;;;;;;;43.80;13.50;;;;;;;;;;5071029;28;20025;-88
2024/01/20 06:03:58;;;;;;;42.88;13.85;;;;;;;;;;5052732;28;20020;-89
2024/01/20 06:06:23;;;;;;;49.87;15.33;;;;;;;;;;5071815;28;20039;-89
2024/01/20 06:08:48;;;;;;;44.60;15.83;;;;;;;;;;5072147;28;20017;-89
2024/01/20 06:11:15;;;;;;;40.27;13.80;;;;;;;;;;5072170;28;20031;-89
2024/01/20 06:13:40;;;;;;;47.15;14.18;;;;;;;;;;5050451;28;20044;-88
2024/01/20 06:16:06;;;;;;;43.97;14.40;;;;;;;;;;5077998;28;20076;-90
2024/01/20 06:18:31;;;;;;;44.40;14.37;;;;;;;;;;5072286;28;20025;-89
2024/01/20 06:20:59;;;;;;;49.63;16.48;;;;;;;;;;5073201;28;20021;-88
2024/01/20 06:23:24;;;;;;;45.20;13.27;;;;;;;;;;5069634;28;20043;-88
2024/01/20 06:25:49;;;;;;;38.20;13.87;;;;;;;;;;5072293;28;20017;-88
2024/01/20 06:28:14;;;;;;;41.53;14.20;;;;;;;;;;5070553;28;20484;-88
2024/01/20 06:30:39;;;;;;;41.90;13.47;;;;;;;;;;5071274;28;20483;-90
2024/01/20 06:33:05;;;;;;;37.17;12.13;;;;;;;;;;5071077;28;20294;-89
2024/01/20 06:35:30;;;;;;;36.40;13.07;;;;;;;;;;5054432;28;20033;-89
2024/01/20 06:37:57;;;;;;;40.60;12.97;;;;;;;;;;5069456;28;20024;-89
2024/01/20 06:40:22;;;;;;;37.97;13.52;;;;;;;;;;5070537;28;20031;-88
2024/01/20 06:42:47;;;;;;;43.83;14.67;;;;;;;;;;5070184;28;20016;-89
2024/01/20 06:45:13;;;;;;;43.47;14.40;;;;;;;;;;5071848;28;20040;-90
2024/01/20 06:47:38;;;;;;;45.57;15.40;;;;;;;;;;5052630;28;20017;-89
2024/01/20 06:50:04;;;;;;;38.37;13.63;;;;;;;;;;5071835;28;20086;-89
2024/01/20 06:52:32;;;;;;;37.35;13.80;;;;;;;;;;5070885;28;20082;-89
2024/01/20 06:54:58;;;;;;;39.23;14.80;;;;;;;;;;5073874;28;20040;-89
2024/01/20 06:57:23;;;;;;;45.35;15.20;;;;;;;;;;5056455;28;20027;-89
2024/01/20 06:59:48;;;;;;;40.77;12.30;;;;;;;;;;5068679;28;20020;-89
2024/01/20 07:02:13;;;;;;;37.27;12.87;;;;;;;;;;5073088;28;20487;-90
2024/01/20 07:04:38;;;;;;;34.93;11.80;;;;;;;;;;5072038;28;20020;-93
2024/01/20 07:07:04;;;;;;;39.27;12.70;;;;;;;;;;5074037;28;20025;-92
2024/01/20 07:09:29;;;;;;;36.03;12.70;;;;;;;;;;5064935;28;20040;-91
2024/01/20 07:11:57;;;;;;;43.40;15.00;;;;;;;;;;5066751;28;20021;-92
2024/01/20 07:14:23;;;;;;;41.03;14.00;;;;;;;;;;5072685;28;20040;-91
2024/01/20 07:16:48;;;;;;;43.30;15.57;;;;;;;;;;5053045;28;20202;-89
2024/01/20 07:19:14;;;;;;;39.53;14.17;;;;;;;;;;5063917;28;20290;-90
2024/01/20 07:21:39;;;;;;;39.03;12.93;;;;;;;;;;5057763;28;20048;-90
2024/01/20 07:24:04;;;;;;;39.40;13.53;;;;;;;;;;5050667;28;20017;-91
2024/01/20 07:26:29;;;;;;;31.73;12.37;;;;;;;;;;5065426;28;20393;-90
2024/01/20 07:28:55;;;;;;;35.33;12.87;;;;;;;;;;5071690;28;20013;-91
2024/01/20 07:31:20;;;;;;;37.73;13.50;;;;;;;;;;5071587;28;20357;-91
2024/01/20 07:33:46;;;;;;;39.07;15.53;;;;;;;;;;5073089;28;20438;-93
2024/01/20 07:36:11;;;;;;;42.83;13.93;;;;;;;;;;5072931;28;20027;-92
2024/01/20 07:38:37;;;;;;;43.70;13.93;;;;;;;;;;5072002;28;20012;-90
2024/01/20 07:41:02;;;;;;;49.03;16.30;;;;;;;;;;5072309;28;20119;-90
2024/01/20 07:43:27;;;;;;;42.33;13.33;;;;;;;;;;5074959;28;20476;-89
2024/01/20 07:45:54;;;;;;;47.87;16.30;;;;;;;;;;5065661;28;20488;-90
2024/01/20 07:48:19;;;;;;;43.83;16.83;;;;;;;;;;5052548;28;20106;-90
2024/01/20 07:50:45;;;;;;;43.20;15.23;;;;;;;;;;5056892;28;20468;-90
2024/01/20 07:53:10;;;;;;;46.70;17.43;;;;;;;;;;5064124;28;20291;-90
2024/01/20 07:55:35;;;;;;;33.10;12.33;;;;;;;;;;5074415;28;20695;-90
2024/01/20 07:58:00;;;;;;;40.93;14.20;;;;;;;;;;5091270;28;20021;-89
2024/01/20 08:00:25;;;;;;;38.50;15.07;;;;;;;;;;5091427;28;20009;-91
2024/01/20 08:02:51;;;;;;;44.33;15.50;;;;;;;;;;5093054;28;20044;-89
2024/01/20 08:05:16;;;;;;;38.07;14.17;;;;;;;;;;5083702;28;20001;-89
2024/01/20 08:07:42;;;;;;;37.50;14.93;;;;;;;;;;5089928;28;20021;-90
2024/01/20 08:10:07;;;;;;;41.90;15.20;;;;;;;;;;5073511;28;20036;-90
2024/01/20 08:12:32;;;;;;;44.13;15.43;;;;;;;;;;5061721;28;20098;-90
2024/01/20 08:14:57;;;;;;;39.07;14.63;;;;;;;;;;5068938;28;20384;-90
2024/01/20 08:17:22;;;;;;;39.40;15.17;;;;;;;;;;5071325;28;20058;-90
2024/01/20 08:19:49;;;;;;;44.80;14.47;;;;;;;;;;5061341;28;20025;-89
2024/01/20 08:22:14;;;;;;;40.03;14.23;;;;;;;;;;5059300;28;20024;-90
2024/01/20 08:24:39;;;;;;;45.57;15.83;;;;;;;;;;5078255;28;20289;-90
2024/01/20 08:27:04;;;;;;;37.47;14.73;;;;;;;;;;5092555;28;20107;-90
2024/01/20 08:29:29;;;;;;;39.43;14.87;;;;;;;;;;5094067;28;20084;-90
2024/01/20 08:31:55;;;;;;;38.60;14.33;;;;;;;;;;5091997;28;20068;-88
2024/01/20 08:34:20;;;;;;;39.30;15.17;;;;;;;;;;5086599;28;20016;-89
2024/01/20 08:36:45;;;;;;;47.63;14.57;;;;;;;;;;5091460;28;20012;-89
2024/01/20 08:39:10;;;;;;;37.87;13.93;;;;;;;;;;5071606;28;20062;-89
2024/01/20 08:41:35;;;;;;;37.67;14.27;;;;;;;;;;5061784;28;20037;-90
2024/01/20 08:44:01;;;;;;;37.10;13.00;;;;;;;;;;5061551;28;20012;-91
2024/01/20 08:46:26;;;;;;;37.43;13.90;;;;;;;;;;5075970;28;20054;-91
2024/01/20 08:48:51;;;;;;;35.90;13.10;;;;;;;;;;5077098;28;20099;-90
2024/01/20 08:51:16;;;;;;;41.93;14.33;;;;;;;;;;5062755;28;20025;-90
2024/01/20 08:53:42;;;;;;;39.87;14.20;;;;;;;;;;5073502;28;20093;-91
2024/01/20 08:56:07;;;;;;;33.17;13.53;;;;;;;;;;5078337;28;20017;-91
2024/01/20 08:58:32;;;;;;;34.67;13.60;;;;;;;;;;5079841;28;20176;-89
2024/01/20 09:00:57;;;;;;;39.40;13.97;;;;;;;;;;5071279;28;20055;-91
2024/01/20 09:03:23;;;;;;;42.30;16.47;;;;;;;;;;5071759;28;20119;-90
2024/01/20 09:05:48;;;;;;;35.63;14.67;;;;;;;;;;5073223;28;20275;-88
2024/01/20 09:08:13;;;;;;;41.43;16.57;;;;;;;;;;5078166;28;20519;-89
2024/01/20 09:10:39;;;;;;;33.80;13.70;;;;;;;;;;5081950;28;20353;-89
2024/01/20 09:13:04;;;;;;;34.33;13.80;;;;;;;;;;5079415;28;20028;-90
2024/01/20 09:15:29;;;;;;;35.77;13.73;;;;;;;;;;5079139;28;20099;-93
2024/01/20 09:17:55;;;;;;;35.58;13.55;;;;;;;;;;5065371;28;20020;-91
2024/01/20 09:20:20;;;;;;;35.60;13.83;;;;;;;;;;5075513;28;20043;-90
2024/01/20 09:22:46;;;;;;;37.07;13.80;;;;;;;;;;5076297;28;20051;-90
2024/01/20 09:25:11;;;;;;;39.28;15.40;;;;;;;;;;5075867;28;20353;-89
2024/01/20 09:27:37;;;;;;;32.83;13.67;;;;;;;;;;5076597;28;20096;-90
2024/01/20 09:30:04;;;;;;;42.63;16.45;;;;;;;;;;5075067;28;20167;-90
2024/01/20 09:32:33;;;;;;;31.27;14.17;;;;;;;;;;5083937;28;20025;-90
2024/01/20 09:34:58;;;;;;;34.88;13.65;;;;;;;;;;5056820;28;20035;-91
2024/01/20 09:37:23;;;;;;;36.80;13.90;;;;;;;;;;5073925;28;20120;-91
2024/01/20 09:39:48;;;;;;;31.77;12.90;;;;;;;;;;5074376;28;20028;-91
2024/01/20 09:42:15;;;;;;;32.43;12.00;;;;;;;;;;5074442;28;20074;-91
2024/01/20 09:44:41;;;;;;;30.08;11.90;;;;;;;;;;5057031;28;20059;-91
2024/01/20 09:47:12;;;;;;;34.13;13.32;;;;;;;;;;5074534;28;20020;-90
2024/01/20 09:49:37;;;;;;;28.73;12.40;;;;;;;;;;5057658;28;20089;-90
2024/01/20 09:52:23;;;;;;;30.67;13.10;;;;;;;;;;5073949;28;20032;-90
2024/01/20 09:54:52;;;;;;;31.05;13.30;;;;;;;;;;5072039;28;20044;-90
2024/01/20 09:57:17;;;;;;;37.10;14.60;;;;;;;;;;5087603;28;20031;-90
2024/01/20 09:59:43;;;;;;;39.72;16.33;;;;;;;;;;5078320;28;20021;-90
2024/01/20 10:02:10;;;;;;;35.30;15.07;;;;;;;;;;5063124;28;20045;-90
2024/01/20 10:04:39;;;;;;;37.80;14.57;;;;;;;;;;5056340;28;20025;-90
2024/01/20 10:07:04;;;;;;;41.90;15.30;;;;;;;;;;5053443;28;20017;-90
2024/01/20 10:09:30;;;;;;;39.63;17.20;;;;;;;;;;5063294;28;20434;-90
2024/01/20 10:11:56;;;;;;;34.85;14.13;;;;;;;;;;5072741;28;20028;-90
2024/01/20 10:14:21;;;;;;;33.33;13.95;;;;;;;;;;5054660;28;20025;-90
2024/01/20 10:16:46;;;;;;;38.00;14.67;;;;;;;;;;5073093;28;20020;-90
2024/01/20 10:19:11;;;;;;;34.13;13.30;;;;;;;;;;5071674;28;20107;-88
2024/01/20 10:21:42;;;;;;;33.40;13.10;;;;;;;;;;5072270;28;20035;-90
2024/01/20 10:24:08;;;;;;;38.88;14.70;;;;;;;;;;5072538;28;20436;-89
2024/01/20 10:26:42;;;;;;;29.27;13.03;;;;;;;;;;5067668;28;20021;-90
2024/01/20 10:29:08;;;;;;;30.17;12.68;;;;;;;;;;5056887;28;20036;-90
2024/01/20 10:31:33;;;;;;;35.17;13.73;;;;;;;;;;5054534;28;20443;-89
2024/01/20 10:33:58;;;;;;;36.40;15.07;;;;;;;;;;5072090;28;20329;-91
2024/01/20 10:36:24;;;;;;;28.67;12.37;;;;;;;;;;5071555;28;20058;-89
2024/01/20 10:38:52;;;;;;;36.72;15.60;;;;;;;;;;5054750;28;20118;-90
2024/01/20 10:41:18;;;;;;;33.03;13.32;;;;;;;;;;5073098;28;20112;-89
2024/01/20 10:43:48;;;;;;;33.30;13.15;;;;;;;;;;5076098;28;20037;-90
2024/01/20 10:46:26;;;;;;;32.17;13.45;;;;;;;;;;5076763;28;20147;-90
2024/01/20 10:48:52;;;;;;;34.50;17.07;;;;;;;;;;5074749;28;20020;-90
2024/01/20 10:51:22;;;;;;;31.13;12.40;;;;;;;;;;5068082;28;20051;-90
2024/01/20 10:53:48;;;;;;;29.75;11.50;;;;;;;;;;5055732;28;20040;-89
2024/01/20 10:56:13;;;;;;;27.30;11.88;;;;;;;;;;5070688;28;20012;-90
2024/01/20 10:58:40;;;;;;;31.63;13.57;;;;;;;;;;5056212;28;20047;-89
2024/01/20 11:01:07;;;;;;;33.55;12.50;;;;;;;;;;5071439;28;20021;-90
2024/01/20 11:03:32;;;;;;;28.33;12.52;;;;;;;;;;5074742;28;20020;-89
2024/01/20 11:05:57;;;;;;;31.33;12.73;;;;;;;;;;5061375;28;20028;-89
2024/01/20 11:08:27;;;;;;;29.83;12.53;;;;;;;;;;5033717;28;20031;-88
2024/01/20 11:10:55;;;;;;;29.95;11.93;;;;;;;;;;5053431;28;20107;-89
2024/01/20 11:13:24;;;;;;;36.20;13.88;;;;;;;;;;5052394;28;20024;-88
2024/01/20 11:15:51;;;;;;;27.30;11.88;;;;;;;;;;5064017;28;20032;-88
2024/01/20 11:18:17;;;;;;;28.57;12.97;;;;;;;;;;5073134;28;20020;-88
2024/01/20 11:20:52;;;;;;;27.73;12.63;;;;;;;;;;5069190;28;20058;-88
2024/01/20 11:23:17;;;;;;;32.17;12.75;;;;;;;;;;5071637;28;20032;-88
2024/01/20 11:25:45;;;;;;;28.27;11.87;;;;;;;;;;5060251;28;20040;-87
2024/01/20 11:28:21;;;;;;;27.02;11.13;;;;;;;;;;5051526;28;20017;-87
2024/01/20 11:30:46;;;;;;;26.95;11.45;;;;;;;;;;5088889;28;20040;-89
2024/01/20 11:33:12;;;;;;;29.70;13.17;;;;;;;;;;5092642;28;20029;-87
2024/01/20 11:35:37;;;;;;;35.37;15.13;;;;;;;;;;5083013;28;20059;-87
2024/01/20 11:38:03;;;;;;;35.63;15.48;;;;;;;;;;5072341;28;20032;-87
2024/01/20 11:40:28;;;;;;;43.03;18.17;;;;;;;;;;5074863;28;20012;-86
2024/01/20 11:43:03;;;;;;;42.53;16.47;;;;;;;;;;5070118;28;20089;-87
2024/01/20 11:45:28;;;;;;;41.80;16.25;;;;;;;;;;5050708;28;20049;-88
2024/01/20 11:47:53;;;;;;;44.03;18.20;;;;;;;;;;5051702;28;20139;-86
2024/01/20 11:50:19;;;;;;;40.13;16.13;;;;;;;;;;5062764;28;20021;-87
2024/01/20 11:52:44;;;;;;;33.23;15.40;;;;;;;;;;5054879;28;20020;-86
2024/01/20 11:55:09;;;;;;;38.27;15.97;;;;;;;;;;5051445;28;20025;-87
2024/01/20 11:57:35;;;;;;;38.77;16.40;;;;;;;;;;5050990;28;20017;-87
2024/01/20 12:00:00;;;;;;;34.00;14.55;;;;;;;;;;5032409;28;20082;-87
2024/01/20 12:02:27;;;;;;;40.03;16.40;;;;;;;;;;5051707;28;20060;-87
2024/01/20 12:04:52;;;;;;;36.28;15.55;;;;;;;;;;5055823;28;20017;-86
2024/01/20 12:07:18;;;;;;;35.70;15.10;;;;;;;;;;5057707;28;20029;-87
2024/01/20 12:09:44;;;;;;;30.37;12.90;;;;;;;;;;5062360;28;20017;-87
2024/01/20 12:12:09;;;;;;;34.15;14.25;;;;;;;;;;5069053;28;20024;-87
2024/01/20 12:14:34;;;;;;;32.73;14.40;;;;;;;;;;5055342;28;20024;-86
2024/01/20 12:16:59;;;;;;;37.43;15.00;;;;;;;;;;5033814;28;20260;-86
2024/01/20 12:19:26;;;;;;;31.97;14.23;;;;;;;;;;5070919;28;20465;-86
2024/01/20 12:21:51;;;;;;;32.88;13.50;;;;;;;;;;5068860;28;20082;-86
2024/01/20 12:24:16;;;;;;;29.53;13.93;;;;;;;;;;5070361;28;20422;-86
2024/01/20 12:26:42;;;;;;;29.93;13.40;;;;;;;;;;5037386;28;20033;-86
2024/01/20 12:29:07;;;;;;;30.97;13.60;;;;;;;;;;5069337;28;20058;-86
2024/01/20 12:31:32;;;;;;;30.95;12.80;;;;;;;;;;5054213;28;20085;-86
2024/01/20 12:45:41;;;;;;;28.80;12.98;;;;;;;;;;5285586;22;20109;-87
2024/01/20 12:48:07;;;;;;;25.80;10.68;;;;;;;;;;5081465;28;20020;-86
2024/01/20 12:50:33;;;;;;;27.67;10.93;;;;;;;;;;5095645;28;20032;-87
2024/01/20 12:52:58;;;;;;;23.10;11.18;;;;;;;;;;5072259;28;20506;-87
2024/01/20 12:55:24;;;;;;;29.80;12.23;;;;;;;;;;5095485;28;20027;-87
2024/01/20 12:57:49;;;;;;;25.27;11.03;;;;;;;;;;5074274;28;20066;-87
2024/01/20 13:00:14;;;;;;;24.00;11.20;;;;;;;;;;5092357;28;20582;-87
2024/01/20 13:02:40;;;;;;;25.07;10.93;;;;;;;;;;5090913;28;20568;-88
2024/01/20 13:05:06;;;;;;;27.58;10.38;;;;;;;;;;5091296;28;20032;-87
2024/01/20 13:07:31;;;;;;;27.03;11.83;;;;;;;;;;5081840;28;20079;-87
2024/01/20 13:09:56;;;;;;;22.87;10.80;;;;;;;;;;5074680;28;20024;-87
2024/01/20 13:12:22;;;;;;;29.50;14.53;;;;;;;;;;5091659;28;20293;-88
2024/01/20 13:14:47;;;;;;;24.70;9.77;;;;;;;;;;5090410;28;20020;-88
2024/01/20 13:17:13;;;;;;;30.53;12.83;;;;;;;;;;5066571;28;20028;-89
2024/01/20 13:19:38;;;;;;;26.73;11.45;;;;;;;;;;5092511;28;20739;-88
2024/01/20 13:22:03;;;;;;;25.93;11.17;;;;;;;;;;5078062;28;20031;-88
2024/01/20 13:24:29;;;;;;;24.27;9.83;;;;;;;;;;5093319;28;20240;-88
2024/01/20 13:26:54;;;;;;;25.60;10.73;;;;;;;;;;5084686;28;20020;-89
2024/01/20 13:29:19;;;;;;;21.77;9.80;;;;;;;;;;5090858;28;20079;-88
2024/01/20 13:31:44;;;;;;;23.83;9.83;;;;;;;;;;5072617;28;20017;-89
2024/01/20 13:34:10;;;;;;;21.20;10.07;;;;;;;;;;5090617;28;20043;-87
2024/01/20 13:36:35;;;;;;;23.67;9.30;;;;;;;;;;5084148;28;20463;-88
2024/01/20 13:39:00;;;;;;;26.73;10.57;;;;;;;;;;5079579;28;20051;-88
2024/01/20 13:41:29;;;;;;;22.27;10.70;;;;;;;;;;5074153;28;20024;-87
2024/01/20 13:43:54;;;;;;;20.73;9.93;;;;;;;;;;5090020;28;20077;-87
2024/01/20 13:46:19;;;;;;;22.60;9.33;;;;;;;;;;5091130;28;20059;-88
2024/01/20 13:48:47;;;;;;;22.47;9.67;;;;;;;;;;5092781;28;20111;-88
2024/01/20 13:51:12;;;;;;;22.63;9.23;;;;;;;;;;5092428;28;20085;-88
2024/01/20 13:53:38;;;;;;;22.30;9.57;;;;;;;;;;5093792;28;20032;-89
2024/01/20 13:56:03;;;;;;;19.97;9.90;;;;;;;;;;5094629;28;20031;-88
2024/01/20 13:58:29;;;;;;;17.23;8.77;;;;;;;;;;5094522;28;20016;-88
2024/01/20 14:00:54;;;;;;;21.27;8.93;;;;;;;;;;5093518;28;20475;-88
2024/01/20 14:03:19;;;;;;;21.77;9.20;;;;;;;;;;5091917;28;20598;-89
2024/01/20 14:05:46;;;;;;;21.40;10.70;;;;;;;;;;5082067;28;20013;-89
2024/01/20 14:08:11;;;;;;;20.60;8.63;;;;;;;;;;5092143;28;20375;-88
2024/01/20 14:10:36;;;;;;;23.10;9.57;;;;;;;;;;5091888;28;20100;-89
2024/01/20 14:13:04;;;;;;;19.57;9.30;;;;;;;;;;5089301;28;20028;-88
2024/01/20 14:15:29;;;;;;;20.43;8.80;;;;;;;;;;5085692;28;20024;-89
2024/01/20 14:17:54;;;;;;;19.97;9.00;;;;;;;;;;5089753;28;20361;-89
2024/01/20 14:20:19;;;;;;;19.03;8.93;;;;;;;;;;5091113;28;20375;-88